createdAt,value
2022-09-16T00:01:58.558Z,4.30
2022-09-16T00:04:27.148Z,3.93
2022-09-16T00:06:55.661Z,4.57
2022-09-16T00:09:24.067Z,4.40
2022-09-16T00:11:52.139Z,4.00
2022-09-16T00:14:20.735Z,4.80
2022-09-16T00:16:48.898Z,3.83
2022-09-16T00:19:18.551Z,4.17
2022-09-16T00:21:49.230Z,4.00
2022-09-16T00:24:18.295Z,4.53
2022-09-16T00:26:46.693Z,4.40
2022-09-16T00:29:17.972Z,4.10
2022-09-16T00:31:46.554Z,4.33
2022-09-16T00:34:15.028Z,3.87
2022-09-16T00:36:45.091Z,4.40
2022-09-16T00:39:14.232Z,4.27
2022-09-16T00:41:42.767Z,3.70
2022-09-16T00:44:45.215Z,4.37
2022-09-16T00:47:14.174Z,4.17
2022-09-16T00:49:42.901Z,4.70
2022-09-16T00:52:13.186Z,4.47
2022-09-16T00:54:43.837Z,4.67
2022-09-16T00:57:14.342Z,4.30
2022-09-16T00:59:45.464Z,4.07
2022-09-16T01:02:17.624Z,4.20
2022-09-16T01:04:51.461Z,4.00
2022-09-16T01:07:28.594Z,4.30
2022-09-16T01:09:57.167Z,4.47
2022-09-16T01:12:26.221Z,4.40
2022-09-16T01:14:54.756Z,4.27
2022-09-16T01:17:33.838Z,4.60
2022-09-16T01:20:22.241Z,3.90
2022-09-16T01:23:10.941Z,4.40
2022-09-16T01:25:57.769Z,3.80
2022-09-16T01:28:44.816Z,3.70
2022-09-16T01:31:19.934Z,4.13
2022-09-16T01:33:57.051Z,4.40
2022-09-16T01:36:39.181Z,4.40
2022-09-16T01:39:20.277Z,4.00
2022-09-16T01:42:02.865Z,4.10
2022-09-16T01:44:39.500Z,3.93
2022-09-16T01:47:14.028Z,4.40
2022-09-16T01:49:47.910Z,4.07
2022-09-16T01:52:25.872Z,4.03
2022-09-16T01:55:00.805Z,3.80
2022-09-16T01:57:35.798Z,4.53
2022-09-16T02:00:07.960Z,4.23
2022-09-16T02:02:42.956Z,3.63
2022-09-16T02:05:15.504Z,4.50
2022-09-16T02:07:48.572Z,3.80
2022-09-16T02:10:23.689Z,4.27
2022-09-16T02:12:56.814Z,3.87
2022-09-16T02:15:28.117Z,4.20
2022-09-16T02:18:02.618Z,3.93
2022-09-16T02:20:33.774Z,4.07
2022-09-16T02:23:06.843Z,4.07
2022-09-16T02:25:37.557Z,3.93
2022-09-16T02:28:11.835Z,4.17
2022-09-16T02:30:44.532Z,3.60
2022-09-16T02:33:16.738Z,4.07
2022-09-16T02:35:49.720Z,3.63
2022-09-16T02:38:22.856Z,3.40
2022-09-16T02:40:55.992Z,3.83
2022-09-16T02:43:25.064Z,4.07
2022-09-16T02:46:01.340Z,3.43
2022-09-16T02:48:41.029Z,3.70
2022-09-16T02:51:18.347Z,4.10
2022-09-16T02:53:52.552Z,3.83
2022-09-16T02:56:27.326Z,4.00
2022-09-16T02:58:55.780Z,3.37
2022-09-16T03:01:25.057Z,3.23
2022-09-16T03:03:56.670Z,3.60
2022-09-16T03:06:26.213Z,3.60
2022-09-16T03:08:57.668Z,3.37
2022-09-16T03:11:53.926Z,3.87
2022-09-16T03:14:38.886Z,3.97
2022-09-16T03:17:21.588Z,3.60
2022-09-16T03:20:01.142Z,4.30
2022-09-16T03:22:43.543Z,4.43
2022-09-16T03:25:20.669Z,4.40
2022-09-16T03:27:53.048Z,3.50
2022-09-16T03:30:21.674Z,4.50
2022-09-16T03:32:54.162Z,4.00
2022-09-16T03:35:28.861Z,3.83
2022-09-16T03:38:00.561Z,4.10
2022-09-16T03:40:30.776Z,3.97
2022-09-16T03:42:59.912Z,4.07
2022-09-16T03:45:28.980Z,4.07
2022-09-16T03:47:57.415Z,3.63
2022-09-16T03:50:27.274Z,4.40
2022-09-16T03:52:55.982Z,4.83
2022-09-16T03:55:24.804Z,4.33
2022-09-16T03:57:54.903Z,4.30
2022-09-16T04:00:23.591Z,4.37
2022-09-16T04:02:52.310Z,4.90
2022-09-16T04:05:24.415Z,4.17
2022-09-16T04:07:55.061Z,4.33
2022-09-16T04:10:23.643Z,3.87
2022-09-16T04:12:52.464Z,4.53
2022-09-16T04:15:20.901Z,4.30
2022-09-16T04:17:49.439Z,4.37
2022-09-16T04:20:17.723Z,4.57
2022-09-16T04:22:45.878Z,4.60
2022-09-16T04:25:15.855Z,4.80
2022-09-16T04:27:44.372Z,5.07
2022-09-16T04:30:14.104Z,5.13
2022-09-16T04:32:44.480Z,4.93
2022-09-16T04:35:14.063Z,5.13
2022-09-16T04:37:46.945Z,4.70
2022-09-16T04:40:17.868Z,4.63
2022-09-16T04:42:51.333Z,4.60
2022-09-16T04:45:20.406Z,4.53
2022-09-16T04:47:48.942Z,4.83
2022-09-16T04:50:17.637Z,4.87
2022-09-16T04:52:46.491Z,5.30
2022-09-16T04:55:15.291Z,5.27
2022-09-16T04:57:45.768Z,5.13
2022-09-16T05:00:16.022Z,4.93
2022-09-16T05:02:46.375Z,5.27
2022-09-16T05:05:17.447Z,5.50
2022-09-16T05:07:48.563Z,5.87
2022-09-16T05:10:17.900Z,6.27
2022-09-16T05:12:52.308Z,6.00
2022-09-16T05:15:21.043Z,5.53
2022-09-16T05:17:53.827Z,5.63
2022-09-16T05:20:22.407Z,5.80
2022-09-16T05:22:52.296Z,5.57
2022-09-16T05:25:20.977Z,6.00
2022-09-16T05:30:33.722Z,5.63
2022-09-16T05:33:05.724Z,5.93
2022-09-16T05:35:34.644Z,6.10
2022-09-16T05:38:03.615Z,7.17
2022-09-16T05:40:32.282Z,7.07
2022-09-16T05:43:00.619Z,6.27
2022-09-16T05:45:32.386Z,6.80
2022-09-16T05:48:04.511Z,7.03
2022-09-16T05:50:40.747Z,6.57
2022-09-16T05:53:11.266Z,6.37
2022-09-16T05:55:40.841Z,6.33
2022-09-16T05:58:09.499Z,6.77
2022-09-16T06:00:38.621Z,6.63
2022-09-16T06:03:09.936Z,6.63
2022-09-16T06:05:40.566Z,6.80
2022-09-16T06:08:12.281Z,7.07
2022-09-16T06:10:41.760Z,6.77
2022-09-16T06:13:10.454Z,6.53
2022-09-16T06:15:38.966Z,6.60
2022-09-16T06:18:11.812Z,6.73
2022-09-16T06:20:40.452Z,6.57
2022-09-16T06:23:09.061Z,6.23
2022-09-16T06:25:37.677Z,7.13
2022-09-16T06:28:06.481Z,7.10
2022-09-16T06:30:35.488Z,6.83
2022-09-16T06:33:04.374Z,7.03
2022-09-16T06:35:36.338Z,6.67
2022-09-16T06:38:08.454Z,6.63
2022-09-16T06:40:38.183Z,6.77
2022-09-16T06:43:06.666Z,7.03
2022-09-16T06:45:35.302Z,7.70
2022-09-16T06:48:04.261Z,7.73
2022-09-16T06:50:35.389Z,7.53
2022-09-16T06:53:05.248Z,6.67
2022-09-16T06:55:34.817Z,7.33
2022-09-16T06:58:03.422Z,7.83
2022-09-16T07:00:31.846Z,7.77
2022-09-16T07:03:03.773Z,7.70
2022-09-16T07:05:32.727Z,6.70
2022-09-16T07:08:03.164Z,7.57
2022-09-16T07:10:33.582Z,7.90
2022-09-16T07:13:02.275Z,8.67
2022-09-16T07:15:31.414Z,9.07
2022-09-16T07:18:00.104Z,8.23
2022-09-16T07:20:29.187Z,7.83
2022-09-16T07:22:57.954Z,8.47
2022-09-16T07:25:31.403Z,8.53
2022-09-16T07:28:02.433Z,8.30
2022-09-16T07:30:32.203Z,7.70
2022-09-16T07:33:01.712Z,7.90
2022-09-16T07:41:50.927Z,9.33
2022-09-16T07:44:25.367Z,8.37
2022-09-16T07:47:07.911Z,9.43
2022-09-16T07:49:41.168Z,8.57
2022-09-16T07:52:13.153Z,8.33
2022-09-16T07:54:42.845Z,7.70
2022-09-16T08:00:27.928Z,7.30
2022-09-16T08:03:01.084Z,7.80
2022-09-16T08:05:31.498Z,6.77
2022-09-16T08:08:01.704Z,7.37
2022-09-16T08:13:47.699Z,8.60
2022-09-16T08:16:19.510Z,7.33
2022-09-16T08:18:50.197Z,7.87
2022-09-16T08:21:21.575Z,7.03
2022-09-16T08:23:51.152Z,7.73
2022-09-16T08:26:20.859Z,7.40
2022-09-16T08:29:07.831Z,7.83
2022-09-16T08:31:41.530Z,8.57
2022-09-16T09:11:06.135Z,7.23
2022-09-16T09:17:55.332Z,6.63
2022-09-16T10:00:14.275Z,7.93
2022-09-16T10:02:49.813Z,8.87
2022-09-16T10:05:29.338Z,8.93
2022-09-16T10:08:05.050Z,9.87
2022-09-16T10:10:44.527Z,9.50
2022-09-16T10:13:30.615Z,11.07
2022-09-16T10:16:11.306Z,10.40
2022-09-16T10:18:41.170Z,11.23
2022-09-16T10:21:12.969Z,11.20
2022-09-16T10:23:43.288Z,11.77
2022-09-16T10:26:23.902Z,11.50
2022-09-16T10:29:04.547Z,11.80
2022-09-16T10:31:56.177Z,11.13
2022-09-16T10:34:30.896Z,13.10
2022-09-16T10:37:23.318Z,12.63
2022-09-16T10:39:56.041Z,12.77
2022-09-16T10:42:26.228Z,12.33
2022-09-16T10:45:00.957Z,12.40
2022-09-16T10:47:36.432Z,12.23
2022-09-16T10:50:08.965Z,14.10
2022-09-16T10:52:44.947Z,9.97
2022-09-16T10:55:26.333Z,8.57
2022-09-16T10:57:57.305Z,6.40
2022-09-16T11:00:35.392Z,6.93
2022-09-16T11:03:34.397Z,7.17
2022-09-16T11:12:47.668Z,6.80
2022-09-16T11:15:33.376Z,6.33
2022-09-16T11:18:38.400Z,6.13
2022-09-16T11:21:18.803Z,7.00
2022-09-16T11:24:17.633Z,7.27
2022-09-16T11:26:55.271Z,7.63
2022-09-16T11:29:52.675Z,7.67
2022-09-16T11:32:28.938Z,8.20
2022-09-16T11:35:14.644Z,7.90
2022-09-16T11:37:52.760Z,8.60
2022-09-16T11:40:31.243Z,8.60
2022-09-16T11:43:25.465Z,8.47
2022-09-16T11:49:25.563Z,6.40
2022-09-16T12:04:50.089Z,6.50
2022-09-16T12:10:25.555Z,5.90
2022-09-16T12:18:44.628Z,5.43
2022-09-16T12:21:25.378Z,5.07
2022-09-16T12:24:01.828Z,5.80
2022-09-16T12:26:39.973Z,5.93
2022-09-16T12:29:19.984Z,5.03
2022-09-16T12:31:55.669Z,5.37
2022-09-16T12:34:27.476Z,5.80
2022-09-16T12:37:10.774Z,6.23
2022-09-16T12:39:42.548Z,5.83
2022-09-16T12:42:46.078Z,6.90
2022-09-16T12:45:32.360Z,6.60
2022-09-16T12:51:52.020Z,6.27
2022-09-16T12:55:07.820Z,6.20
2022-09-16T12:57:51.315Z,4.37
2022-09-16T13:00:26.147Z,4.10
2022-09-16T13:06:09.289Z,3.87
2022-09-16T13:08:49.149Z,3.77
2022-09-16T13:12:24.146Z,4.87
2022-09-16T13:17:09.497Z,3.67
2022-09-16T13:19:53.556Z,3.87
2022-09-16T13:22:29.202Z,4.30
2022-09-16T13:38:23.388Z,3.83
2022-09-16T13:41:07.618Z,3.60
2022-09-16T13:43:39.534Z,3.70
2022-09-16T13:46:16.938Z,3.90
2022-09-16T13:48:52.845Z,4.20
2022-09-16T13:51:25.249Z,4.27
2022-09-16T13:54:06.043Z,3.70
2022-09-16T14:00:36.522Z,4.43
2022-09-16T14:03:43.730Z,3.83
2022-09-16T14:06:55.900Z,3.40
2022-09-16T14:09:46.011Z,3.87
2022-09-16T14:12:51.904Z,3.50
2022-09-16T14:15:28.420Z,3.90
2022-09-16T14:18:04.722Z,3.77
2022-09-16T14:20:35.683Z,3.50
2022-09-16T14:23:05.507Z,3.67
2022-09-16T14:25:36.837Z,4.13
2022-09-16T14:28:23.502Z,4.43
2022-09-16T14:30:59.264Z,4.20
2022-09-16T14:33:30.739Z,4.23
2022-09-16T14:36:15.102Z,4.53
2022-09-16T14:38:56.585Z,4.23
2022-09-16T14:41:32.364Z,3.93
2022-09-16T14:44:14.097Z,4.20
2022-09-16T14:47:07.521Z,3.90
2022-09-16T14:55:26.347Z,4.23
2022-09-16T14:57:55.605Z,4.43
2022-09-16T15:00:30.165Z,4.07
2022-09-16T15:03:02.694Z,3.60
2022-09-16T15:05:35.299Z,4.43
2022-09-16T15:08:15.028Z,3.80
2022-09-16T15:10:52.370Z,3.97
2022-09-16T15:13:23.388Z,5.00
2022-09-16T15:15:56.171Z,3.70
2022-09-16T15:18:30.887Z,4.63
2022-09-16T15:21:15.388Z,3.93
2022-09-16T15:23:49.177Z,4.90
2022-09-16T15:26:35.155Z,4.13
2022-09-16T15:29:06.021Z,4.13
2022-09-16T15:31:40.888Z,4.40
2022-09-16T15:34:23.593Z,3.70
2022-09-16T15:36:53.377Z,4.60
2022-09-16T15:39:26.855Z,4.03
2022-09-16T15:42:11.204Z,3.60
2022-09-16T15:44:47.868Z,3.80
2022-09-16T15:47:25.506Z,3.63
2022-09-16T15:49:59.713Z,3.43
2022-09-16T15:52:29.659Z,4.23
2022-09-16T15:55:04.958Z,3.87
2022-09-16T15:57:35.706Z,4.03
2022-09-16T16:00:13.178Z,6.50
2022-09-16T16:02:49.536Z,5.13
2022-09-16T16:05:21.627Z,5.03
2022-09-16T16:07:52.597Z,4.90
2022-09-16T16:13:26.577Z,4.70
2022-09-16T16:16:00.279Z,4.40
2022-09-16T16:24:45.681Z,4.10
2022-09-16T16:27:16.022Z,4.13
2022-09-16T16:29:46.811Z,3.70
2022-09-16T16:32:15.929Z,4.10
2022-09-16T16:34:47.491Z,3.93
2022-09-16T16:37:40.316Z,4.03
2022-09-16T16:40:07.594Z,3.80
2022-09-16T16:42:41.076Z,3.40
2022-09-16T16:45:10.867Z,5.43
2022-09-16T16:47:42.429Z,5.30
2022-09-16T16:50:13.587Z,4.57
2022-09-16T16:52:43.037Z,5.30
2022-09-16T16:55:12.066Z,4.27
2022-09-16T16:57:42.211Z,4.40
2022-09-16T17:00:11.654Z,4.50
2022-09-16T17:02:40.362Z,4.40
2022-09-16T17:05:09.346Z,3.70
2022-09-16T17:07:37.931Z,4.63
2022-09-16T17:10:06.591Z,4.27
2022-09-16T17:12:35.471Z,4.40
2022-09-16T17:15:05.808Z,3.97
2022-09-16T17:17:34.469Z,4.50
2022-09-16T17:20:03.303Z,5.00
2022-09-16T17:22:35.169Z,4.37
2022-09-16T17:25:04.842Z,4.03
2022-09-16T17:27:33.477Z,4.30
2022-09-16T17:30:02.427Z,4.47
2022-09-16T17:32:36.318Z,4.73
2022-09-16T17:35:05.447Z,5.03
2022-09-16T17:37:37.377Z,4.33
2022-09-16T17:40:07.186Z,4.10
2022-09-16T17:42:35.925Z,4.57
2022-09-16T17:45:07.471Z,4.30
2022-09-16T17:47:53.609Z,4.50
2022-09-16T17:50:23.165Z,4.47
2022-09-16T17:52:52.681Z,4.90
2022-09-16T17:55:21.822Z,4.47
2022-09-16T17:57:50.865Z,4.70
2022-09-16T18:00:35.467Z,5.00
2022-09-16T18:03:06.927Z,5.03
2022-09-16T18:05:35.546Z,5.17
2022-09-16T18:08:04.933Z,5.00
2022-09-16T18:10:33.536Z,4.60
2022-09-16T18:13:02.991Z,4.80
2022-09-16T18:15:31.613Z,5.07
2022-09-16T18:18:01.006Z,4.63
2022-09-16T18:20:32.034Z,4.60
2022-09-16T18:23:01.561Z,5.63
2022-09-16T18:25:31.018Z,4.70
2022-09-16T18:27:59.730Z,4.50
2022-09-16T18:30:28.489Z,4.47
2022-09-16T18:32:59.522Z,5.60
2022-09-16T18:35:32.272Z,5.33
2022-09-16T18:38:12.016Z,5.13
2022-09-16T18:40:42.223Z,4.57
2022-09-16T18:43:12.854Z,5.10
2022-09-16T18:45:44.487Z,4.73
2022-09-16T18:48:14.848Z,5.83
2022-09-16T18:50:45.923Z,5.17
2022-09-16T18:53:17.505Z,5.10
2022-09-16T18:55:47.403Z,5.60
2022-09-16T18:58:20.365Z,4.97
2022-09-16T19:00:50.110Z,5.13
2022-09-16T19:03:19.616Z,4.87
2022-09-16T19:05:57.217Z,5.63
2022-09-16T19:08:27.578Z,5.00
2022-09-16T19:10:58.815Z,5.80
2022-09-16T19:13:28.022Z,5.73
2022-09-16T19:15:58.172Z,4.93
2022-09-16T19:18:42.119Z,5.43
2022-09-16T19:21:15.765Z,4.80
2022-09-16T19:23:47.338Z,5.33
2022-09-16T19:26:18.012Z,5.60
2022-09-16T19:28:47.788Z,5.53
2022-09-16T19:31:16.937Z,5.13
2022-09-16T19:33:51.547Z,5.53
2022-09-16T19:39:10.032Z,4.63
2022-09-16T19:41:41.375Z,4.97
2022-09-16T19:44:12.704Z,5.30
2022-09-16T19:46:42.981Z,4.80
2022-09-16T19:49:16.646Z,5.70
2022-09-16T19:51:45.373Z,5.00
2022-09-16T19:54:18.917Z,5.57
2022-09-16T19:56:50.918Z,5.30
2022-09-16T19:59:22.360Z,5.70
2022-09-16T20:01:52.683Z,5.03
2022-09-16T20:04:21.734Z,5.83
2022-09-16T20:06:51.688Z,5.90
2022-09-16T20:09:22.228Z,5.80
2022-09-16T20:11:51.477Z,5.27
2022-09-16T20:14:22.318Z,6.10
2022-09-16T20:16:52.603Z,5.27
2022-09-16T20:19:23.095Z,5.20
2022-09-16T20:21:52.728Z,5.63
2022-09-16T20:24:25.327Z,6.97
2022-09-16T20:26:57.670Z,5.07
2022-09-16T20:29:27.244Z,5.80
2022-09-16T20:32:00.811Z,7.53
2022-09-16T20:34:29.926Z,10.80
2022-09-16T20:37:00.314Z,16.07
2022-09-16T20:39:31.204Z,7.93
2022-09-16T20:42:00.586Z,4.90
2022-09-16T20:44:29.652Z,7.27
2022-09-16T20:46:59.537Z,4.40
2022-09-16T20:49:34.610Z,5.20
2022-09-16T20:52:03.846Z,5.03
2022-09-16T20:54:47.270Z,4.60
2022-09-16T21:00:01.950Z,4.37
2022-09-16T21:02:32.218Z,3.93
2022-09-16T21:05:19.026Z,4.30
2022-09-16T21:07:49.649Z,4.23
2022-09-16T21:13:06.181Z,4.20
2022-09-16T21:21:50.388Z,4.70
2022-09-16T21:34:08.529Z,4.70
2022-09-16T21:36:39.362Z,4.70
2022-09-16T21:39:10.778Z,4.20
2022-09-16T21:41:53.170Z,4.83
2022-09-16T21:44:22.660Z,5.07
2022-09-16T21:46:57.830Z,5.60
2022-09-16T21:49:30.477Z,5.40
2022-09-16T22:11:01.832Z,6.83
2022-09-16T22:13:33.294Z,7.13
2022-09-16T22:16:03.432Z,6.63
2022-09-16T22:59:23.809Z,4.70
2022-09-16T23:02:19.639Z,4.70
2022-09-16T23:05:10.448Z,4.53
2022-09-16T23:07:59.202Z,4.57
2022-09-16T23:10:32.233Z,4.20
2022-09-16T23:13:05.434Z,5.00
2022-09-16T23:18:45.209Z,4.87
2022-09-16T23:21:39.760Z,4.57
2022-09-16T23:24:18.531Z,3.73
2022-09-16T23:26:48.161Z,4.53
2022-09-16T23:32:38.945Z,4.80
2022-09-16T23:51:36.843Z,5.57
2022-09-16T23:54:10.485Z,4.90
2022-09-16T23:59:33.610Z,5.33
